createdAt,value
2017-12-08T00:01:53.275Z,83.84
2017-12-08T00:04:21.616Z,83.64
2017-12-08T00:06:49.969Z,81.07
2017-12-08T00:09:18.307Z,80.18
2017-12-08T00:11:46.638Z,79.98
2017-12-08T00:14:14.969Z,82.61
2017-12-08T00:16:43.289Z,80.29
2017-12-08T00:19:11.674Z,81.03
2017-12-08T00:21:40.014Z,81.19
2017-12-08T00:24:08.391Z,79.69
2017-12-08T00:26:36.678Z,81.41
2017-12-08T00:29:05.019Z,80.05
2017-12-08T00:31:33.399Z,79.89
2017-12-08T00:34:01.730Z,80.80
2017-12-08T00:36:30.074Z,80.22
2017-12-08T00:41:32.874Z,82.70
2017-12-08T00:44:01.319Z,79.93
2017-12-08T00:46:29.661Z,82.80
2017-12-08T00:48:58.004Z,77.86
2017-12-08T00:51:26.364Z,77.97
2017-12-08T00:53:54.699Z,80.07
2017-12-08T00:56:23.074Z,76.63
2017-12-08T00:58:51.414Z,77.59
2017-12-08T01:01:19.757Z,76.72
2017-12-08T01:03:48.096Z,77.17
2017-12-08T01:06:16.437Z,78.00
2017-12-08T01:08:44.797Z,76.54
2017-12-08T01:11:13.150Z,77.67
2017-12-08T01:13:41.507Z,75.87
2017-12-08T01:16:09.834Z,76.53
2017-12-08T01:18:38.181Z,78.62
2017-12-08T01:21:06.546Z,79.48
2017-12-08T01:23:34.881Z,80.11
2017-12-08T01:26:03.218Z,79.32
2017-12-08T01:28:31.549Z,78.83
2017-12-08T01:30:59.899Z,78.48
2017-12-08T01:33:28.269Z,77.02
2017-12-08T01:35:56.613Z,76.18
2017-12-08T01:38:24.964Z,78.57
2017-12-08T01:40:53.294Z,77.72
2017-12-08T01:43:21.639Z,78.79
2017-12-08T01:45:50.003Z,78.51
2017-12-08T01:48:18.347Z,77.44
2017-12-08T01:50:46.703Z,77.66
2017-12-08T01:53:15.038Z,77.91
2017-12-08T01:55:43.385Z,78.71
2017-12-08T01:58:11.797Z,76.89
2017-12-08T02:00:40.095Z,77.62
2017-12-08T02:03:08.432Z,75.80
2017-12-08T02:05:36.779Z,75.75
2017-12-08T02:08:05.118Z,78.49
2017-12-08T02:10:33.634Z,79.88
2017-12-08T02:13:01.999Z,78.36
2017-12-08T02:15:30.349Z,80.87
2017-12-08T02:17:58.693Z,79.73
2017-12-08T02:20:27.039Z,77.72
2017-12-08T02:22:55.418Z,75.36
2017-12-08T02:25:23.765Z,76.93
2017-12-08T02:27:52.106Z,79.66
2017-12-08T02:30:20.449Z,78.79
2017-12-08T02:32:49.011Z,79.35
2017-12-08T02:35:17.400Z,78.49
2017-12-08T02:37:45.750Z,77.62
2017-12-08T02:40:14.088Z,78.77
2017-12-08T02:42:42.426Z,77.33
2017-12-08T02:45:10.937Z,76.19
2017-12-08T02:47:39.324Z,77.07
2017-12-08T02:50:08.555Z,76.69
2017-12-08T02:52:36.914Z,75.63
2017-12-08T02:55:05.260Z,75.58
2017-12-08T02:57:33.608Z,77.79
2017-12-08T03:00:01.991Z,77.15
2017-12-08T03:02:30.343Z,76.22
2017-12-08T03:04:58.690Z,74.88
2017-12-08T03:07:27.046Z,75.59
2017-12-08T03:09:55.390Z,74.22
2017-12-08T03:12:23.874Z,76.53
2017-12-08T03:14:52.224Z,74.22
2017-12-08T03:17:20.571Z,73.14
2017-12-08T03:19:49.022Z,71.55
2017-12-08T03:22:17.368Z,73.88
2017-12-08T03:24:45.838Z,76.74
2017-12-08T03:27:14.178Z,73.93
2017-12-08T03:29:42.561Z,75.45
2017-12-08T03:32:10.899Z,76.79
2017-12-08T03:34:39.246Z,78.10
2017-12-08T03:37:07.624Z,77.88
2017-12-08T03:39:35.974Z,79.20
2017-12-08T03:42:04.319Z,78.60
2017-12-08T03:44:32.655Z,80.89
2017-12-08T03:47:01.004Z,79.87
2017-12-08T03:49:29.383Z,80.66
2017-12-08T03:51:57.722Z,77.43
2017-12-08T03:54:26.073Z,79.22
2017-12-08T03:56:54.427Z,79.55
2017-12-08T03:59:22.766Z,78.06
2017-12-08T04:01:51.146Z,75.44
2017-12-08T04:04:19.506Z,73.86
2017-12-08T04:06:47.856Z,75.48
2017-12-08T04:09:16.189Z,77.18
2017-12-08T04:11:44.658Z,76.97
2017-12-08T04:14:13.019Z,76.51
2017-12-08T04:16:41.357Z,75.84
2017-12-08T04:19:09.706Z,76.42
2017-12-08T04:21:38.058Z,75.71
2017-12-08T04:24:06.435Z,72.66
2017-12-08T04:26:34.793Z,73.71
2017-12-08T04:29:03.134Z,71.17
2017-12-08T04:31:31.486Z,71.17
2017-12-08T04:33:59.839Z,73.43
2017-12-08T04:36:28.208Z,75.05
2017-12-08T04:38:56.552Z,76.13
2017-12-08T04:41:24.912Z,76.95
2017-12-08T04:43:53.254Z,75.54
2017-12-08T04:46:21.605Z,75.53
2017-12-08T04:48:50.011Z,75.69
2017-12-08T04:51:18.351Z,75.33
2017-12-08T04:53:46.699Z,75.51
2017-12-08T04:56:15.046Z,77.64
2017-12-08T04:58:43.404Z,77.35
2017-12-08T05:01:11.782Z,77.39
2017-12-08T05:03:40.126Z,80.95
2017-12-08T05:06:08.476Z,79.22
2017-12-08T05:08:36.820Z,79.37
2017-12-08T05:11:05.171Z,80.54
2017-12-08T05:13:33.534Z,79.58
2017-12-08T05:16:01.878Z,78.18
2017-12-08T05:18:30.228Z,77.78
2017-12-08T05:20:58.584Z,79.32
2017-12-08T05:23:26.933Z,78.56
2017-12-08T05:25:55.310Z,78.31
2017-12-08T05:28:23.651Z,76.85
2017-12-08T05:30:52.027Z,76.15
2017-12-08T05:33:20.375Z,77.62
2017-12-08T05:35:48.717Z,80.45
2017-12-08T05:38:17.204Z,83.08
2017-12-08T05:40:45.590Z,81.19
2017-12-08T05:43:13.919Z,80.29
2017-12-08T05:45:42.255Z,84.03
2017-12-08T05:48:10.591Z,81.38
2017-12-08T05:50:38.963Z,81.77
2017-12-08T05:53:07.308Z,80.11
2017-12-08T05:55:35.657Z,87.19
2017-12-08T05:58:03.994Z,83.00
2017-12-08T06:00:32.329Z,83.27
2017-12-08T06:03:01.007Z,81.60
2017-12-08T06:05:29.342Z,84.03
2017-12-08T06:07:57.676Z,82.36
2017-12-08T06:10:26.019Z,82.36
2017-12-08T06:12:54.355Z,79.51
2017-12-08T06:15:22.723Z,81.25
2017-12-08T06:17:51.047Z,79.13
2017-12-08T06:20:19.391Z,80.15
2017-12-08T06:22:47.723Z,76.84
2017-12-08T06:25:16.058Z,78.30
2017-12-08T06:27:44.426Z,77.38
2017-12-08T06:30:12.786Z,78.77
2017-12-08T06:32:41.119Z,77.25
2017-12-08T06:35:09.472Z,77.44
2017-12-08T06:37:37.802Z,79.26
2017-12-08T06:40:06.166Z,77.17
2017-12-08T06:42:34.516Z,73.38
2017-12-08T06:45:02.858Z,74.71
2017-12-08T06:47:31.198Z,74.15
2017-12-08T06:49:59.634Z,74.17
2017-12-08T06:52:28.107Z,74.64
2017-12-08T06:54:57.048Z,74.53
2017-12-08T06:57:25.395Z,74.42
2017-12-08T06:59:53.747Z,73.83
2017-12-08T07:02:22.087Z,73.43
2017-12-08T07:04:50.458Z,74.09
2017-12-08T07:07:18.801Z,76.04
2017-12-08T07:09:47.149Z,75.55
2017-12-08T07:12:15.482Z,73.07
2017-12-08T07:14:43.826Z,72.57
2017-12-08T07:17:12.259Z,74.76
2017-12-08T07:19:40.558Z,73.55
2017-12-08T07:22:08.898Z,74.91
2017-12-08T07:24:37.247Z,75.01
2017-12-08T07:27:05.586Z,74.04
2017-12-08T07:29:33.955Z,76.64
2017-12-08T07:32:02.313Z,76.60
2017-12-08T07:34:30.647Z,77.16
2017-12-08T07:36:58.994Z,76.62
2017-12-08T07:39:27.339Z,76.31
2017-12-08T07:41:55.895Z,75.73
2017-12-08T07:44:24.242Z,75.74
2017-12-08T07:46:52.603Z,76.99
2017-12-08T07:49:20.935Z,76.56
2017-12-08T07:51:49.272Z,75.14
2017-12-08T07:54:17.650Z,76.12
2017-12-08T07:56:45.986Z,76.61
2017-12-08T07:59:14.331Z,75.19
2017-12-08T08:01:42.688Z,75.70
2017-12-08T08:04:11.026Z,76.88
2017-12-08T08:06:39.406Z,76.36
2017-12-08T08:09:07.751Z,74.77
2017-12-08T08:11:36.110Z,75.18
2017-12-08T08:14:04.490Z,73.23
2017-12-08T08:16:32.839Z,73.46
2017-12-08T08:19:01.177Z,72.99
2017-12-08T08:21:29.528Z,73.85
2017-12-08T08:23:57.870Z,73.24
2017-12-08T08:26:26.247Z,73.81
2017-12-08T08:28:54.587Z,74.57
2017-12-08T08:31:22.946Z,74.02
2017-12-08T08:33:51.279Z,72.45
2017-12-08T08:36:19.616Z,71.78
2017-12-08T08:38:48.004Z,72.00
2017-12-08T08:41:16.346Z,71.92
2017-12-08T08:43:44.703Z,71.29
2017-12-08T08:46:13.053Z,72.04
2017-12-08T08:48:41.398Z,72.53
2017-12-08T08:51:09.766Z,71.64
2017-12-08T08:53:38.115Z,72.25
2017-12-08T08:56:06.460Z,71.56
2017-12-08T08:58:34.823Z,72.87
2017-12-08T09:01:03.175Z,73.04
2017-12-08T09:03:31.548Z,74.67
2017-12-08T09:05:59.899Z,73.49
2017-12-08T09:08:28.259Z,74.97
2017-12-08T09:10:56.623Z,77.65
2017-12-08T09:13:24.961Z,79.98
2017-12-08T09:15:53.355Z,78.59
2017-12-08T09:18:21.706Z,77.02
2017-12-08T09:20:50.047Z,76.31
2017-12-08T09:23:18.390Z,79.64
2017-12-08T09:25:46.738Z,79.76
2017-12-08T09:28:15.121Z,80.56
2017-12-08T09:30:43.605Z,79.32
2017-12-08T09:33:11.938Z,75.94
2017-12-08T09:35:40.270Z,75.40
2017-12-08T09:38:08.602Z,76.81
2017-12-08T09:40:36.975Z,77.81
2017-12-08T09:43:05.338Z,76.44
2017-12-08T09:45:33.679Z,75.66
2017-12-08T09:48:02.042Z,77.84
2017-12-08T09:50:30.411Z,77.12
2017-12-08T09:52:58.775Z,77.48
2017-12-08T09:55:27.106Z,76.52
2017-12-08T09:57:55.455Z,76.84
2017-12-08T10:00:23.792Z,76.35
2017-12-08T10:02:52.133Z,77.26
2017-12-08T10:05:20.517Z,76.81
2017-12-08T10:07:48.851Z,78.44
2017-12-08T10:10:17.234Z,76.39
2017-12-08T10:12:45.568Z,77.92
2017-12-08T10:15:13.907Z,76.58
2017-12-08T10:17:42.303Z,75.54
2017-12-08T10:20:10.631Z,75.16
2017-12-08T10:22:38.959Z,75.37
2017-12-08T10:25:07.326Z,73.42
2017-12-08T10:27:35.673Z,73.72
2017-12-08T10:30:04.152Z,73.34
2017-12-08T10:32:32.494Z,72.99
2017-12-08T10:35:00.837Z,72.70
2017-12-08T10:37:29.185Z,72.83
2017-12-08T10:39:57.522Z,72.67
2017-12-08T10:42:25.911Z,72.08
2017-12-08T10:44:54.264Z,73.29
2017-12-08T10:47:22.610Z,72.58
2017-12-08T10:49:50.995Z,72.26
2017-12-08T10:52:19.471Z,72.58
2017-12-08T10:54:47.926Z,72.91
2017-12-08T10:57:16.282Z,72.20
2017-12-08T10:59:44.610Z,74.17
2017-12-08T11:02:12.954Z,72.98
2017-12-08T11:04:41.314Z,73.43
2017-12-08T11:07:09.839Z,74.21
2017-12-08T11:09:38.192Z,73.95
2017-12-08T11:12:06.533Z,72.83
2017-12-08T11:14:34.868Z,72.89
2017-12-08T11:17:03.198Z,72.06
2017-12-08T11:19:31.582Z,72.83
2017-12-08T11:21:59.914Z,72.97
2017-12-08T11:24:28.274Z,74.78
2017-12-08T11:26:56.629Z,71.60
2017-12-08T11:29:24.971Z,73.87
2017-12-08T11:31:53.352Z,75.95
2017-12-08T11:34:21.682Z,74.28
2017-12-08T11:36:50.796Z,73.30
2017-12-08T11:39:19.186Z,74.45
2017-12-08T11:41:47.560Z,77.02
2017-12-08T11:44:15.955Z,77.56
2017-12-08T11:46:44.305Z,78.41
2017-12-08T11:49:12.668Z,79.09
2017-12-08T11:51:40.987Z,77.49
2017-12-08T11:54:09.325Z,76.35
2017-12-08T11:56:37.709Z,78.09
2017-12-08T11:59:06.062Z,78.60
2017-12-08T12:01:34.407Z,76.71
2017-12-08T12:04:02.749Z,76.25
2017-12-08T12:06:31.096Z,77.16
2017-12-08T12:08:59.463Z,76.43
2017-12-08T12:11:27.816Z,77.26
2017-12-08T12:13:56.168Z,75.78
2017-12-08T12:16:24.511Z,73.80
2017-12-08T12:18:52.843Z,74.59
2017-12-08T12:21:21.232Z,76.19
2017-12-08T12:23:49.585Z,78.78
2017-12-08T12:26:17.931Z,76.70
2017-12-08T12:28:46.342Z,77.44
2017-12-08T12:31:14.720Z,76.24
2017-12-08T12:33:43.042Z,75.04
2017-12-08T12:36:11.388Z,74.85
2017-12-08T12:38:39.785Z,76.15
2017-12-08T12:41:08.120Z,75.70
2017-12-08T12:43:36.468Z,74.89
2017-12-08T12:46:04.801Z,74.89
2017-12-08T12:48:33.148Z,75.67
2017-12-08T12:51:01.520Z,75.50
2017-12-08T12:53:29.872Z,76.59
2017-12-08T12:55:58.203Z,77.13
2017-12-08T12:58:26.538Z,77.62
2017-12-08T13:00:54.885Z,77.76
2017-12-08T13:03:23.252Z,79.33
2017-12-08T13:05:51.663Z,77.78
2017-12-08T13:08:19.995Z,76.09
2017-12-08T13:10:48.380Z,78.11
2017-12-08T13:13:16.688Z,76.05
2017-12-08T13:15:45.059Z,77.88
2017-12-08T13:18:13.396Z,78.96
2017-12-08T13:20:41.745Z,76.33
2017-12-08T13:23:10.100Z,77.97
2017-12-08T13:25:38.426Z,78.62
2017-12-08T13:28:06.800Z,78.93
2017-12-08T13:30:35.138Z,78.73
2017-12-08T13:33:03.501Z,80.20
2017-12-08T13:35:31.847Z,81.26
2017-12-08T13:38:00.221Z,78.45
2017-12-08T13:40:28.711Z,76.40
2017-12-08T13:42:57.068Z,76.53
2017-12-08T13:45:25.411Z,76.14
2017-12-08T13:47:53.763Z,76.11
2017-12-08T13:50:22.842Z,76.42
2017-12-08T13:52:51.406Z,75.44
2017-12-08T13:55:31.470Z,76.53
2017-12-08T13:57:59.863Z,77.24
2017-12-08T14:00:28.190Z,77.02
2017-12-08T14:02:56.550Z,77.49
2017-12-08T14:05:24.883Z,77.37
2017-12-08T14:07:53.267Z,80.72
2017-12-08T14:10:21.639Z,77.79
2017-12-08T14:12:49.969Z,76.04
2017-12-08T14:15:18.323Z,79.47
2017-12-08T14:17:46.670Z,80.52
2017-12-08T14:20:15.014Z,78.21
2017-12-08T14:22:43.402Z,76.97
2017-12-08T14:25:11.758Z,79.38
2017-12-08T14:27:40.109Z,81.60
2017-12-08T14:30:08.453Z,79.84
2017-12-08T14:32:36.794Z,81.88
2017-12-08T14:35:05.160Z,81.93
2017-12-08T14:37:33.507Z,82.23
2017-12-08T14:40:01.871Z,82.11
2017-12-08T14:42:30.226Z,85.78
2017-12-08T14:44:58.558Z,85.46
2017-12-08T14:47:26.881Z,84.60
2017-12-08T14:49:55.230Z,86.00
2017-12-08T14:52:23.612Z,83.81
2017-12-08T14:54:51.951Z,86.55
2017-12-08T14:57:20.269Z,85.25
2017-12-08T14:59:48.617Z,84.04
2017-12-08T15:02:16.950Z,81.53
2017-12-08T15:04:45.335Z,82.36
2017-12-08T15:07:13.761Z,79.31
2017-12-08T15:09:42.114Z,79.94
2017-12-08T15:12:10.482Z,79.28
2017-12-08T15:14:38.829Z,78.71
2017-12-08T15:17:07.231Z,80.33
2017-12-08T15:19:35.593Z,80.55
2017-12-08T15:22:03.930Z,79.25
2017-12-08T15:24:32.267Z,81.21
2017-12-08T15:27:00.609Z,78.19
2017-12-08T15:29:28.976Z,78.17
2017-12-08T15:31:57.343Z,78.92
2017-12-08T15:34:25.682Z,78.48
2017-12-08T15:36:54.027Z,78.01
2017-12-08T15:39:22.391Z,79.10
2017-12-08T15:41:50.766Z,78.54
2017-12-08T15:44:19.111Z,77.92
2017-12-08T15:46:47.475Z,76.61
2017-12-08T15:49:15.818Z,76.18
2017-12-08T15:51:44.198Z,79.75
2017-12-08T15:54:12.537Z,80.37
2017-12-08T15:56:40.884Z,78.62
2017-12-08T15:59:09.235Z,79.62
2017-12-08T16:01:37.585Z,80.76
2017-12-08T16:04:06.069Z,80.33
2017-12-08T16:06:34.574Z,81.08
2017-12-08T16:09:02.907Z,78.64
2017-12-08T16:11:31.302Z,79.35
2017-12-08T16:13:59.611Z,79.18
2017-12-08T16:16:28.143Z,79.97
2017-12-08T16:18:56.498Z,80.19
2017-12-08T16:21:24.900Z,79.64
2017-12-08T16:23:53.270Z,78.35
2017-12-08T16:26:21.622Z,78.18
2017-12-08T16:28:50.015Z,79.70
2017-12-08T16:31:18.371Z,76.95
2017-12-08T16:33:46.762Z,79.63
2017-12-08T16:36:15.094Z,77.74
2017-12-08T16:38:43.432Z,80.35
2017-12-08T16:41:11.802Z,79.50
2017-12-08T16:43:40.146Z,79.51
2017-12-08T16:46:08.543Z,79.07
2017-12-08T16:48:36.905Z,78.34
2017-12-08T16:51:05.244Z,76.62
2017-12-08T16:53:33.630Z,76.36
2017-12-08T16:56:01.982Z,77.60
2017-12-08T16:58:30.453Z,77.34
2017-12-08T17:00:58.799Z,76.07
2017-12-08T17:03:27.127Z,75.83
2017-12-08T17:05:55.488Z,75.93
2017-12-08T17:08:23.819Z,78.18
2017-12-08T17:10:52.211Z,77.94
2017-12-08T17:13:20.549Z,78.33
2017-12-08T17:15:49.868Z,77.65
2017-12-08T17:18:18.214Z,76.16
2017-12-08T17:20:46.560Z,78.23
2017-12-08T17:23:14.926Z,78.65
2017-12-08T17:25:43.264Z,78.13
2017-12-08T17:28:11.600Z,76.82
2017-12-08T17:30:39.937Z,77.65
2017-12-08T17:33:08.261Z,76.44
2017-12-08T17:35:36.674Z,77.24
2017-12-08T17:38:04.993Z,74.12
2017-12-08T17:40:33.326Z,74.44
2017-12-08T17:43:01.776Z,74.01
2017-12-08T17:45:30.370Z,74.58
2017-12-08T17:47:58.858Z,77.10
2017-12-08T17:50:27.330Z,74.61
2017-12-08T17:52:55.848Z,75.74
2017-12-08T17:55:24.337Z,74.62
2017-12-08T17:57:52.992Z,76.99
2017-12-08T18:00:21.440Z,76.88
2017-12-08T18:02:49.844Z,76.42
2017-12-08T18:05:18.187Z,75.43
2017-12-08T18:07:49.639Z,76.91
2017-12-08T18:10:22.203Z,75.32
2017-12-08T18:12:54.112Z,75.68
2017-12-08T18:15:26.141Z,77.70
2017-12-08T18:17:56.333Z,77.08
2017-12-08T18:20:27.664Z,75.04
2017-12-08T18:22:57.427Z,74.79
2017-12-08T18:25:31.750Z,74.00
2017-12-08T18:28:04.527Z,74.26
2017-12-08T18:30:33.417Z,74.36
2017-12-08T18:33:02.273Z,75.41
2017-12-08T18:35:31.550Z,74.99
2017-12-08T18:38:00.279Z,74.31
2017-12-08T18:40:29.022Z,73.95
2017-12-08T18:42:57.531Z,73.44
2017-12-08T18:45:25.958Z,73.35
2017-12-08T18:47:55.134Z,72.63
2017-12-08T18:50:26.558Z,75.31
2017-12-08T18:52:55.167Z,72.85
2017-12-08T18:55:23.514Z,74.72
2017-12-08T18:57:51.850Z,73.03
2017-12-08T19:00:20.216Z,73.47
2017-12-08T19:02:48.574Z,74.10
2017-12-08T19:05:17.043Z,73.53
2017-12-08T19:07:45.391Z,73.94
2017-12-08T19:10:13.750Z,73.84
2017-12-08T19:12:42.086Z,75.31
2017-12-08T19:15:10.462Z,74.17
2017-12-08T19:17:39.056Z,75.03
2017-12-08T19:20:07.414Z,73.08
2017-12-08T19:22:35.767Z,72.76
2017-12-08T19:25:04.106Z,73.01
2017-12-08T19:27:32.480Z,71.75
2017-12-08T19:30:00.844Z,75.26
2017-12-08T19:32:29.176Z,75.42
2017-12-08T19:34:57.522Z,73.48
2017-12-08T19:37:25.858Z,72.75
2017-12-08T19:39:54.206Z,76.71
2017-12-08T19:42:22.735Z,75.01
2017-12-08T19:44:51.116Z,73.82
2017-12-08T19:47:20.365Z,74.61
2017-12-08T19:49:48.713Z,72.63
2017-12-08T19:52:17.062Z,75.26
2017-12-08T19:54:45.478Z,75.36
2017-12-08T19:57:13.912Z,75.61
2017-12-08T19:59:42.313Z,76.06
2017-12-08T20:02:10.649Z,76.96
2017-12-08T20:04:38.988Z,75.29
2017-12-08T20:07:07.322Z,75.97
2017-12-08T20:09:35.674Z,75.85
2017-12-08T20:12:04.041Z,75.49
2017-12-08T20:14:32.399Z,77.01
2017-12-08T20:17:00.740Z,76.31
2017-12-08T20:19:34.014Z,77.39
2017-12-08T20:22:02.354Z,77.00
2017-12-08T20:24:30.724Z,77.50
2017-12-08T20:26:59.075Z,76.21
2017-12-08T20:29:27.426Z,77.58
2017-12-08T20:31:55.794Z,77.12
2017-12-08T20:34:24.130Z,77.10
2017-12-08T20:36:52.512Z,78.15
2017-12-08T20:39:20.856Z,77.50
2017-12-08T20:41:49.218Z,77.77
2017-12-08T20:44:17.570Z,77.10
2017-12-08T20:46:45.915Z,75.61
2017-12-08T20:49:14.420Z,75.39
2017-12-08T20:51:42.762Z,78.00
2017-12-08T20:54:11.107Z,75.73
2017-12-08T20:56:39.458Z,76.66
2017-12-08T20:59:07.798Z,76.01
2017-12-08T21:01:36.162Z,77.12
2017-12-08T21:04:04.498Z,77.77
2017-12-08T21:06:32.838Z,79.03
2017-12-08T21:09:01.183Z,79.29
2017-12-08T21:11:29.540Z,79.42
2017-12-08T21:13:57.922Z,80.39
2017-12-08T21:16:26.275Z,80.53
2017-12-08T21:18:54.620Z,82.31
2017-12-08T21:21:22.954Z,81.86
2017-12-08T21:23:51.315Z,82.62
2017-12-08T21:26:19.684Z,81.44
2017-12-08T21:28:48.031Z,80.98
2017-12-08T21:31:16.380Z,80.53
2017-12-08T21:33:44.736Z,80.54
2017-12-08T21:36:13.069Z,80.36
2017-12-08T21:38:41.451Z,81.94
2017-12-08T21:41:09.802Z,81.01
2017-12-08T21:43:38.157Z,81.61
2017-12-08T21:46:06.542Z,83.16
2017-12-08T21:48:34.883Z,82.41
2017-12-08T21:51:03.251Z,82.65
2017-12-08T21:53:31.604Z,83.00
2017-12-08T21:55:59.967Z,82.55
2017-12-08T21:58:28.315Z,82.63
2017-12-08T22:00:56.710Z,82.33
2017-12-08T22:03:25.057Z,82.38
2017-12-08T22:05:53.403Z,82.85
2017-12-08T22:08:21.918Z,82.74
2017-12-08T22:10:50.290Z,82.92
2017-12-08T22:13:18.633Z,83.63
2017-12-08T22:15:46.967Z,83.65
2017-12-08T22:18:15.322Z,82.47
2017-12-08T22:20:43.711Z,81.02
2017-12-08T22:23:12.061Z,80.92
2017-12-08T22:25:40.402Z,82.18
2017-12-08T22:28:08.750Z,83.43
2017-12-08T22:30:37.098Z,81.24
2017-12-08T22:33:05.495Z,79.47
2017-12-08T22:35:33.830Z,80.78
2017-12-08T22:38:02.166Z,80.57
2017-12-08T22:40:30.542Z,79.79
2017-12-08T22:42:58.883Z,80.69
2017-12-08T22:45:27.261Z,79.58
2017-12-08T22:47:55.622Z,80.18
2017-12-08T22:50:23.972Z,79.25
2017-12-08T22:52:52.302Z,78.64
2017-12-08T22:55:20.630Z,76.90
2017-12-08T22:57:49.012Z,76.87
2017-12-08T23:00:32.014Z,76.82
2017-12-08T23:03:00.383Z,77.61
2017-12-08T23:05:28.730Z,79.32
2017-12-08T23:07:57.071Z,82.38
2017-12-08T23:10:25.435Z,79.70
2017-12-08T23:12:53.766Z,81.21
2017-12-08T23:15:22.122Z,80.53
2017-12-08T23:17:50.471Z,79.02
2017-12-08T23:20:18.805Z,80.64
2017-12-08T23:22:47.145Z,79.39
2017-12-08T23:25:15.470Z,77.28
2017-12-08T23:27:43.852Z,78.65
2017-12-08T23:30:12.187Z,77.77
2017-12-08T23:32:40.526Z,81.30
2017-12-08T23:35:08.889Z,79.94
2017-12-08T23:37:37.227Z,78.37
2017-12-08T23:40:05.613Z,76.21
2017-12-08T23:42:33.943Z,77.63
2017-12-08T23:45:02.283Z,79.33
2017-12-08T23:47:30.618Z,79.37
2017-12-08T23:49:58.984Z,78.50
2017-12-08T23:52:27.318Z,77.70
2017-12-08T23:54:55.824Z,81.17
2017-12-08T23:57:24.150Z,79.25
2017-12-08T23:59:52.496Z,80.52
